createdAt,value
2022-11-05T00:01:59.738Z,57.90
2022-11-05T00:04:59.790Z,58.00
2022-11-05T00:08:06.660Z,58.30
2022-11-05T00:10:36.562Z,58.25
2022-11-05T00:13:22.508Z,58.29
2022-11-05T00:16:07.602Z,58.19
2022-11-05T00:18:34.045Z,58.09
2022-11-05T00:21:00.518Z,58.17
2022-11-05T00:23:45.694Z,57.99
2022-11-05T00:26:13.020Z,58.13
2022-11-05T00:28:43.542Z,58.30
2022-11-05T00:31:13.132Z,57.92
2022-11-05T00:33:40.949Z,58.02
2022-11-05T00:36:10.489Z,58.12
2022-11-05T00:38:37.233Z,58.13
2022-11-05T00:41:04.609Z,57.95
2022-11-05T00:43:49.550Z,57.73
2022-11-05T00:46:16.047Z,57.99
2022-11-05T00:49:00.916Z,57.99
2022-11-05T00:51:27.379Z,57.56
2022-11-05T00:53:53.927Z,57.59
2022-11-05T00:56:21.776Z,57.45
2022-11-05T00:58:49.045Z,57.76
2022-11-05T01:01:15.722Z,57.79
2022-11-05T01:03:47.503Z,57.61
2022-11-05T01:06:17.890Z,57.54
2022-11-05T01:08:45.753Z,57.85
2022-11-05T01:11:33.089Z,57.65
2022-11-05T01:14:00.884Z,57.45
2022-11-05T01:16:28.386Z,57.66
2022-11-05T01:18:54.985Z,57.37
2022-11-05T01:21:21.476Z,57.13
2022-11-05T01:23:48.019Z,57.26
2022-11-05T01:26:14.657Z,57.24
2022-11-05T01:28:41.186Z,56.99
2022-11-05T01:31:07.780Z,57.19
2022-11-05T01:33:34.257Z,57.11
2022-11-05T01:36:00.725Z,56.89
2022-11-05T01:38:27.185Z,56.98
2022-11-05T01:40:53.664Z,56.87
2022-11-05T01:43:22.545Z,57.13
2022-11-05T01:45:56.695Z,57.00
2022-11-05T01:48:29.161Z,57.12
2022-11-05T01:51:13.706Z,56.99
2022-11-05T01:53:48.540Z,57.25
2022-11-05T01:56:20.346Z,57.09
2022-11-05T01:58:59.012Z,57.26
2022-11-05T02:01:25.730Z,57.41
2022-11-05T02:03:55.319Z,57.28
2022-11-05T02:06:21.982Z,57.36
2022-11-05T02:09:02.996Z,57.50
2022-11-05T02:11:29.900Z,57.32
2022-11-05T02:13:56.460Z,57.21
2022-11-05T02:16:47.506Z,57.33
2022-11-05T02:19:37.427Z,57.38
2022-11-05T02:22:23.451Z,57.78
2022-11-05T02:25:14.791Z,57.38
2022-11-05T02:27:56.599Z,57.48
2022-11-05T02:30:40.632Z,57.42
2022-11-05T02:33:26.732Z,57.65
2022-11-05T02:36:15.073Z,57.61
2022-11-05T02:38:44.557Z,57.54
2022-11-05T02:41:22.734Z,57.56
2022-11-05T02:44:39.708Z,57.31
2022-11-05T02:47:29.320Z,57.56
2022-11-05T02:50:20.489Z,57.33
2022-11-05T02:53:04.003Z,57.61
2022-11-05T02:55:38.150Z,57.33
2022-11-05T02:58:05.968Z,57.30
2022-11-05T03:00:38.519Z,57.35
2022-11-05T03:03:08.843Z,57.37
2022-11-05T03:06:01.224Z,57.79
2022-11-05T03:08:50.677Z,57.63
2022-11-05T03:11:23.752Z,57.36
2022-11-05T03:13:59.507Z,57.47
2022-11-05T03:16:36.015Z,57.56
2022-11-05T03:19:41.048Z,57.64
2022-11-05T03:22:23.171Z,57.85
2022-11-05T03:24:57.896Z,57.62
2022-11-05T03:27:30.000Z,57.65
2022-11-05T03:30:05.445Z,57.80
2022-11-05T03:32:33.868Z,57.83
2022-11-05T03:35:13.920Z,57.74
2022-11-05T03:37:43.325Z,57.83
2022-11-05T03:40:12.089Z,57.67
2022-11-05T03:42:42.824Z,57.60
2022-11-05T03:45:20.671Z,57.77
2022-11-05T03:47:50.677Z,57.70
2022-11-05T03:50:28.884Z,57.73
2022-11-05T03:53:05.041Z,57.65
2022-11-05T03:55:56.049Z,57.90
2022-11-05T03:58:23.968Z,57.72
2022-11-05T04:00:51.028Z,57.77
2022-11-05T04:03:17.550Z,57.59
2022-11-05T04:05:44.541Z,57.65
2022-11-05T04:08:29.323Z,57.66
2022-11-05T04:11:14.123Z,57.79
2022-11-05T04:13:40.661Z,57.92
2022-11-05T04:16:25.933Z,57.72
2022-11-05T04:18:52.396Z,57.78
2022-11-05T04:21:37.263Z,57.97
2022-11-05T04:24:14.866Z,57.93
2022-11-05T04:26:46.520Z,58.04
2022-11-05T04:29:31.833Z,58.14
2022-11-05T04:31:58.289Z,58.08
2022-11-05T04:34:26.289Z,57.99
2022-11-05T04:36:53.333Z,58.11
2022-11-05T04:39:21.226Z,58.05
2022-11-05T04:41:48.646Z,57.96
2022-11-05T04:44:16.696Z,58.08
2022-11-05T04:46:43.517Z,58.15
2022-11-05T04:49:09.990Z,58.08
2022-11-05T04:51:36.467Z,58.20
2022-11-05T04:54:03.538Z,58.15
2022-11-05T04:56:30.029Z,57.93
2022-11-05T04:58:56.475Z,57.99
2022-11-05T05:01:23.877Z,57.99
2022-11-05T05:03:51.868Z,58.21
2022-11-05T05:06:19.036Z,58.01
2022-11-05T05:08:50.189Z,58.18
2022-11-05T05:11:19.541Z,57.99
2022-11-05T05:13:46.503Z,58.16
2022-11-05T05:16:24.472Z,57.94
2022-11-05T05:18:51.341Z,58.01
2022-11-05T05:21:37.793Z,57.98
2022-11-05T05:24:15.251Z,58.02
2022-11-05T05:26:44.129Z,57.99
2022-11-05T05:29:11.284Z,58.11
2022-11-05T05:31:37.952Z,58.12
2022-11-05T05:34:05.500Z,58.09
2022-11-05T05:36:33.606Z,57.90
2022-11-05T05:39:00.048Z,58.02
2022-11-05T05:41:26.546Z,58.03
2022-11-05T05:43:52.991Z,58.00
2022-11-05T05:46:19.782Z,58.08
2022-11-05T05:48:50.663Z,58.14
2022-11-05T05:51:18.352Z,58.05
2022-11-05T05:53:45.156Z,58.09
2022-11-05T05:56:14.886Z,58.14
2022-11-05T05:58:41.817Z,58.31
2022-11-05T06:01:17.229Z,58.21
2022-11-05T06:03:45.320Z,58.25
2022-11-05T06:06:13.509Z,58.26
2022-11-05T06:08:40.395Z,58.13
2022-11-05T06:11:07.489Z,58.12
2022-11-05T06:13:34.370Z,58.18
2022-11-05T06:16:02.557Z,58.34
2022-11-05T06:18:30.307Z,58.35
2022-11-05T06:21:02.204Z,58.41
2022-11-05T06:23:31.572Z,58.27
2022-11-05T06:26:08.555Z,58.50
2022-11-05T06:28:35.470Z,58.41
2022-11-05T06:31:02.153Z,58.64
2022-11-05T06:33:28.700Z,58.54
2022-11-05T06:35:58.497Z,58.29
2022-11-05T06:38:25.002Z,58.46
2022-11-05T06:40:51.437Z,58.51
2022-11-05T06:43:17.978Z,58.31
2022-11-05T06:45:44.485Z,58.28
2022-11-05T06:48:10.988Z,58.31
2022-11-05T06:50:37.518Z,58.32
2022-11-05T06:53:04.584Z,58.49
2022-11-05T06:55:32.108Z,58.21
2022-11-05T06:57:58.825Z,58.61
2022-11-05T07:00:25.775Z,58.25
2022-11-05T07:02:52.335Z,58.32
2022-11-05T07:05:19.149Z,58.31
2022-11-05T07:07:45.772Z,58.53
2022-11-05T07:10:17.252Z,58.49
2022-11-05T07:12:44.050Z,58.53
2022-11-05T07:15:12.345Z,58.69
2022-11-05T07:17:39.854Z,58.69
2022-11-05T07:20:08.117Z,58.66
2022-11-05T07:22:35.231Z,58.78
2022-11-05T07:25:01.787Z,58.73
2022-11-05T07:27:28.307Z,58.91
2022-11-05T07:29:54.746Z,58.74
2022-11-05T07:32:21.267Z,58.96
2022-11-05T07:34:52.072Z,59.11
2022-11-05T07:37:18.544Z,59.11
2022-11-05T07:39:45.032Z,59.02
2022-11-05T07:42:13.512Z,59.23
2022-11-05T07:44:42.099Z,59.46
2022-11-05T07:47:08.585Z,59.70
2022-11-05T07:49:35.163Z,59.77
2022-11-05T07:52:01.688Z,60.02
2022-11-05T07:54:29.107Z,59.79
2022-11-05T07:56:55.579Z,59.97
2022-11-05T07:59:22.050Z,59.83
2022-11-05T08:01:48.655Z,59.66
2022-11-05T08:04:16.424Z,59.83
2022-11-05T08:06:42.898Z,59.62
2022-11-05T08:09:09.732Z,59.80
2022-11-05T08:11:36.273Z,60.10
2022-11-05T08:14:02.789Z,59.61
2022-11-05T08:16:30.940Z,59.65
2022-11-05T08:18:57.420Z,59.64
2022-11-05T08:21:24.084Z,59.72
2022-11-05T08:23:50.645Z,59.85
2022-11-05T08:26:19.446Z,59.58
2022-11-05T08:28:45.961Z,59.91
2022-11-05T08:31:14.289Z,60.07
2022-11-05T08:33:40.744Z,59.96
2022-11-05T08:36:07.496Z,60.36
2022-11-05T08:38:34.022Z,60.27
2022-11-05T08:41:00.829Z,60.70
2022-11-05T08:43:27.440Z,60.73
2022-11-05T08:45:54.964Z,60.87
2022-11-05T08:48:21.459Z,60.73
2022-11-05T08:50:48.731Z,60.79
2022-11-05T08:53:16.004Z,61.02
2022-11-05T08:55:44.125Z,60.81
2022-11-05T08:58:12.869Z,60.48
2022-11-05T09:00:40.119Z,60.56
2022-11-05T09:03:08.544Z,60.10
2022-11-05T09:05:38.077Z,60.25
2022-11-05T09:08:09.884Z,60.07
2022-11-05T09:10:36.561Z,59.90
2022-11-05T09:13:04.193Z,59.41
2022-11-05T09:15:31.356Z,59.47
2022-11-05T09:17:57.849Z,58.90
2022-11-05T09:20:24.533Z,59.32
2022-11-05T09:22:51.141Z,58.96
2022-11-05T09:25:22.004Z,58.54
2022-11-05T09:27:48.469Z,58.55
2022-11-05T09:30:15.668Z,58.63
2022-11-05T09:32:42.175Z,58.38
2022-11-05T09:35:12.910Z,57.87
2022-11-05T09:37:39.400Z,58.05
2022-11-05T09:40:06.819Z,57.64
2022-11-05T09:42:40.432Z,57.53
2022-11-05T09:45:18.556Z,57.41
2022-11-05T09:48:00.581Z,57.59
2022-11-05T09:50:40.432Z,57.32
2022-11-05T09:53:07.693Z,56.84
2022-11-05T09:55:39.035Z,56.84
2022-11-05T09:58:32.431Z,56.60
2022-11-05T10:00:59.253Z,56.57
2022-11-05T10:03:29.346Z,56.83
2022-11-05T10:06:07.215Z,56.82
2022-11-05T10:08:41.549Z,56.45
2022-11-05T10:11:18.869Z,56.62
2022-11-05T10:13:56.856Z,56.43
2022-11-05T10:16:35.088Z,56.32
2022-11-05T10:19:06.556Z,56.69
2022-11-05T10:22:04.174Z,56.15
2022-11-05T10:24:23.980Z,56.09
2022-11-05T10:26:54.499Z,56.05
2022-11-05T10:29:29.164Z,56.09
2022-11-05T10:31:58.285Z,55.67
2022-11-05T10:34:33.615Z,55.54
2022-11-05T10:37:00.252Z,55.42
2022-11-05T10:39:27.816Z,55.26
2022-11-05T10:41:54.330Z,55.02
2022-11-05T10:44:43.926Z,54.63
2022-11-05T10:47:32.182Z,54.79
2022-11-05T10:50:01.067Z,54.74
2022-11-05T10:52:38.210Z,54.95
2022-11-05T10:55:17.227Z,55.19
2022-11-05T10:57:43.757Z,54.90
2022-11-05T11:00:16.561Z,54.69
2022-11-05T11:02:58.604Z,54.60
2022-11-05T11:05:35.466Z,54.39
2022-11-05T11:08:10.972Z,54.63
2022-11-05T11:10:47.884Z,54.76
2022-11-05T11:13:21.092Z,54.54
2022-11-05T11:15:52.785Z,54.47
2022-11-05T11:18:40.342Z,54.65
2022-11-05T11:21:12.641Z,54.22
2022-11-05T11:23:40.991Z,54.57
2022-11-05T11:26:11.096Z,54.18
2022-11-05T11:28:43.163Z,54.18
2022-11-05T11:31:13.629Z,54.04
2022-11-05T11:33:44.597Z,54.21
2022-11-05T11:36:12.670Z,54.68
2022-11-05T11:38:40.060Z,54.54
2022-11-05T11:41:31.180Z,54.80
2022-11-05T11:44:03.834Z,54.26
2022-11-05T11:46:34.080Z,54.56
2022-11-05T11:49:01.023Z,54.69
2022-11-05T11:51:49.663Z,54.22
2022-11-05T11:54:28.627Z,54.40
2022-11-05T11:56:55.868Z,54.40
2022-11-05T11:59:46.834Z,54.32
2022-11-05T12:02:28.024Z,54.62
2022-11-05T12:05:24.754Z,54.44
2022-11-05T12:07:58.022Z,54.71
2022-11-05T12:10:43.636Z,54.26
2022-11-05T12:13:18.992Z,54.51
2022-11-05T12:16:05.931Z,54.77
2022-11-05T12:18:40.433Z,54.30
2022-11-05T12:21:52.564Z,54.33
2022-11-05T12:25:06.666Z,54.48
2022-11-05T12:27:56.197Z,54.42
2022-11-05T12:30:23.212Z,54.20
2022-11-05T12:33:25.880Z,54.52
2022-11-05T12:36:00.304Z,54.21
2022-11-05T12:38:45.743Z,54.06
2022-11-05T12:41:19.752Z,54.32
2022-11-05T12:43:48.945Z,54.73
2022-11-05T12:46:37.186Z,54.47
2022-11-05T12:49:03.635Z,54.62
2022-11-05T12:51:51.160Z,54.82
2022-11-05T12:54:38.924Z,54.49
2022-11-05T12:57:11.412Z,54.60
2022-11-05T12:59:55.206Z,54.49
2022-11-05T13:02:33.106Z,53.90
2022-11-05T13:05:05.369Z,53.99
2022-11-05T13:07:36.492Z,53.99
2022-11-05T13:10:23.040Z,53.44
2022-11-05T13:12:57.971Z,53.71
2022-11-05T13:15:30.542Z,53.55
2022-11-05T13:18:00.110Z,53.71
2022-11-05T13:20:31.592Z,53.50
2022-11-05T13:23:13.369Z,53.55
2022-11-05T13:25:49.243Z,53.35
2022-11-05T13:28:34.496Z,53.00
2022-11-05T13:31:03.923Z,53.10
2022-11-05T13:33:36.403Z,53.03
2022-11-05T13:36:39.518Z,53.52
2022-11-05T13:39:23.661Z,53.51
2022-11-05T13:42:34.624Z,53.19
2022-11-05T13:45:10.919Z,53.04
2022-11-05T13:47:58.899Z,52.90
2022-11-05T13:51:06.772Z,53.23
2022-11-05T13:54:17.906Z,53.38
2022-11-05T13:56:56.439Z,53.26
2022-11-05T13:59:32.972Z,53.37
2022-11-05T14:02:11.693Z,53.43
2022-11-05T14:04:44.556Z,53.34
2022-11-05T14:07:25.584Z,52.95
2022-11-05T14:09:55.956Z,53.01
2022-11-05T14:12:34.128Z,53.13
2022-11-05T14:15:19.689Z,52.98
2022-11-05T14:17:58.080Z,53.23
2022-11-05T14:20:30.613Z,52.72
2022-11-05T14:23:18.951Z,52.75
2022-11-05T14:25:55.887Z,53.00
2022-11-05T14:28:41.023Z,53.04
2022-11-05T14:31:19.734Z,53.30
2022-11-05T14:34:15.557Z,53.24
2022-11-05T14:37:02.446Z,53.17
2022-11-05T14:39:31.392Z,53.40
2022-11-05T14:42:02.303Z,53.31
2022-11-05T14:44:30.716Z,53.25
2022-11-05T14:47:07.827Z,53.38
2022-11-05T14:49:45.539Z,52.80
2022-11-05T14:52:16.799Z,52.99
2022-11-05T14:54:49.000Z,53.17
2022-11-05T14:57:41.871Z,53.00
2022-11-05T15:00:29.924Z,52.94
2022-11-05T15:03:05.267Z,52.66
2022-11-05T15:05:33.240Z,52.93
2022-11-05T15:08:19.993Z,52.84
2022-11-05T15:10:48.334Z,53.03
2022-11-05T15:13:31.500Z,52.97
2022-11-05T15:15:59.155Z,53.14
2022-11-05T15:18:33.279Z,53.24
2022-11-05T15:21:03.047Z,52.74
2022-11-05T15:23:40.855Z,53.08
2022-11-05T15:26:39.901Z,53.20
2022-11-05T15:29:17.436Z,52.96
2022-11-05T15:31:45.342Z,52.95
2022-11-05T15:34:32.347Z,53.33
2022-11-05T15:37:10.946Z,53.20
2022-11-05T15:39:43.588Z,53.18
2022-11-05T15:42:22.245Z,53.40
2022-11-05T15:44:51.172Z,53.32
2022-11-05T15:47:30.145Z,53.23
2022-11-05T15:50:14.998Z,53.20
2022-11-05T15:52:54.779Z,53.64
2022-11-05T15:55:24.607Z,53.16
2022-11-05T15:57:58.222Z,53.65
2022-11-05T16:00:30.435Z,53.63
2022-11-05T16:03:01.390Z,53.29
2022-11-05T16:05:33.359Z,53.48
2022-11-05T16:08:01.673Z,53.75
2022-11-05T16:10:36.617Z,53.74
2022-11-05T16:13:32.105Z,53.64
2022-11-05T16:16:02.177Z,53.57
2022-11-05T16:18:35.393Z,53.57
2022-11-05T16:21:06.721Z,53.98
2022-11-05T16:23:59.492Z,53.62
2022-11-05T16:26:55.721Z,53.84
2022-11-05T16:29:19.005Z,54.02
2022-11-05T16:31:51.129Z,53.83
2022-11-05T16:34:28.616Z,54.34
2022-11-05T16:36:57.763Z,54.20
2022-11-05T16:39:24.789Z,53.90
2022-11-05T16:41:51.401Z,53.86
2022-11-05T16:44:22.114Z,53.84
2022-11-05T16:46:49.882Z,54.24
2022-11-05T16:49:17.603Z,53.82
2022-11-05T16:51:44.576Z,54.21
2022-11-05T16:54:15.449Z,54.26
2022-11-05T16:56:43.760Z,54.28
2022-11-05T16:59:12.796Z,54.38
2022-11-05T17:01:42.351Z,54.18
2022-11-05T17:04:26.798Z,54.45
2022-11-05T17:06:53.306Z,54.36
2022-11-05T17:09:19.939Z,54.51
2022-11-05T17:11:46.409Z,54.74
2022-11-05T17:14:17.185Z,54.74
2022-11-05T17:16:43.685Z,54.58
2022-11-05T17:19:14.449Z,54.76
2022-11-05T17:21:41.512Z,54.37
2022-11-05T17:24:13.731Z,54.71
2022-11-05T17:26:40.196Z,54.74
2022-11-05T17:29:06.639Z,54.67
2022-11-05T17:31:33.331Z,54.69
2022-11-05T17:34:00.257Z,54.80
2022-11-05T17:36:28.187Z,54.79
2022-11-05T17:38:54.682Z,54.92
2022-11-05T17:41:23.074Z,55.05
2022-11-05T17:43:54.359Z,55.14
2022-11-05T17:46:22.133Z,55.26
2022-11-05T17:48:48.717Z,54.84
2022-11-05T17:51:18.372Z,55.32
2022-11-05T17:53:45.999Z,55.37
2022-11-05T17:56:18.371Z,55.47
2022-11-05T17:58:48.816Z,55.53
2022-11-05T18:01:27.701Z,55.19
2022-11-05T18:03:54.309Z,55.46
2022-11-05T18:06:21.925Z,55.24
2022-11-05T18:08:48.480Z,55.28
2022-11-05T18:11:15.097Z,55.55
2022-11-05T18:13:41.772Z,55.60
2022-11-05T18:16:09.060Z,55.73
2022-11-05T18:18:35.633Z,55.78
2022-11-05T18:21:02.127Z,55.73
2022-11-05T18:23:28.661Z,55.70
2022-11-05T18:25:56.427Z,55.80
2022-11-05T18:28:22.973Z,55.52
2022-11-05T18:30:49.716Z,55.35
2022-11-05T18:33:16.189Z,55.53
2022-11-05T18:35:46.333Z,55.79
2022-11-05T18:38:12.970Z,55.47
2022-11-05T18:40:39.771Z,55.78
2022-11-05T18:43:06.345Z,55.53
2022-11-05T18:45:34.620Z,55.71
2022-11-05T18:48:02.091Z,55.68
2022-11-05T18:50:29.333Z,55.55
2022-11-05T18:52:56.147Z,55.73
2022-11-05T18:55:23.164Z,55.62
2022-11-05T18:57:49.652Z,55.78
2022-11-05T19:00:16.737Z,55.51
2022-11-05T19:02:43.414Z,55.52
2022-11-05T19:07:57.066Z,55.61
2022-11-05T19:10:23.692Z,55.30
2022-11-05T19:12:50.268Z,55.36
2022-11-05T19:15:17.985Z,55.42
2022-11-05T19:17:44.943Z,55.55
2022-11-05T19:20:11.702Z,55.59
2022-11-05T19:22:38.221Z,55.37
2022-11-05T19:25:07.276Z,55.82
2022-11-05T19:27:35.748Z,55.82
2022-11-05T19:30:02.491Z,55.70
2022-11-05T19:32:29.359Z,55.58
2022-11-05T19:34:57.592Z,55.46
2022-11-05T19:37:24.114Z,55.52
2022-11-05T19:39:50.783Z,55.84
2022-11-05T19:42:17.324Z,56.01
2022-11-05T19:44:44.914Z,56.01
2022-11-05T19:47:11.460Z,55.87
2022-11-05T19:49:37.920Z,55.73
2022-11-05T19:52:04.604Z,55.61
2022-11-05T19:54:35.901Z,55.61
2022-11-05T19:57:02.388Z,56.12
2022-11-05T19:59:28.837Z,55.93
2022-11-05T20:01:55.365Z,55.67
2022-11-05T20:04:25.845Z,55.48
2022-11-05T20:06:52.372Z,55.72
2022-11-05T20:09:22.045Z,55.84
2022-11-05T20:11:54.962Z,55.70
2022-11-05T20:14:26.032Z,55.57
2022-11-05T20:16:55.104Z,55.82
2022-11-05T20:19:22.988Z,56.02
2022-11-05T20:21:50.605Z,56.13
2022-11-05T20:24:25.518Z,55.89
2022-11-05T20:26:58.906Z,55.82
2022-11-05T20:29:33.703Z,55.80
2022-11-05T20:32:29.355Z,55.93
2022-11-05T20:35:33.427Z,55.79
2022-11-05T20:38:12.932Z,55.98
2022-11-05T20:41:18.243Z,55.94
2022-11-05T20:43:58.752Z,56.25
2022-11-05T20:46:28.701Z,56.22
2022-11-05T20:48:55.870Z,56.38
2022-11-05T20:51:24.427Z,56.22
2022-11-05T20:53:57.709Z,56.64
2022-11-05T20:56:28.122Z,56.49
2022-11-05T20:58:57.969Z,56.35
2022-11-05T21:01:26.081Z,56.69
2022-11-05T21:03:53.747Z,56.51
2022-11-05T21:06:22.186Z,56.27
2022-11-05T21:08:50.468Z,56.49
2022-11-05T21:11:18.639Z,56.51
2022-11-05T21:13:45.815Z,56.68
2022-11-05T21:16:18.193Z,56.61
2022-11-05T21:18:46.064Z,56.32
2022-11-05T21:21:19.058Z,56.26
2022-11-05T21:23:45.628Z,56.47
2022-11-05T21:26:15.211Z,56.28
2022-11-05T21:28:42.486Z,56.33
2022-11-05T21:31:09.593Z,56.45
2022-11-05T21:33:36.649Z,56.21
2022-11-05T21:36:12.025Z,56.56
2022-11-05T21:38:39.108Z,56.25
2022-11-05T21:41:06.352Z,56.32
2022-11-05T21:43:33.483Z,56.16
2022-11-05T21:46:01.839Z,55.99
2022-11-05T21:48:28.635Z,56.13
2022-11-05T21:51:13.938Z,56.16
2022-11-05T21:53:59.336Z,56.34
2022-11-05T21:56:47.159Z,56.24
2022-11-05T21:59:35.733Z,56.21
2022-11-05T22:02:03.177Z,56.37
2022-11-05T22:04:36.764Z,56.12
2022-11-05T22:07:04.411Z,56.14
2022-11-05T22:09:31.203Z,56.04
2022-11-05T22:11:58.846Z,56.10
2022-11-05T22:14:27.243Z,55.95
2022-11-05T22:16:54.214Z,56.08
2022-11-05T22:19:21.859Z,56.28
2022-11-05T22:21:48.551Z,56.00
2022-11-05T22:24:17.831Z,56.08
2022-11-05T22:26:44.844Z,56.02
2022-11-05T22:29:12.020Z,55.94
2022-11-05T22:31:39.192Z,56.21
2022-11-05T22:34:06.281Z,56.39
2022-11-05T22:36:34.007Z,56.22
2022-11-05T22:39:00.698Z,56.61
2022-11-05T22:41:27.473Z,56.37
2022-11-05T22:43:54.033Z,56.16
2022-11-05T22:46:22.927Z,56.18
2022-11-05T22:48:50.353Z,56.19
2022-11-05T22:51:20.034Z,56.30
2022-11-05T22:53:46.891Z,56.50
2022-11-05T22:56:19.004Z,56.54
2022-11-05T22:58:45.928Z,56.29
2022-11-05T23:01:13.217Z,56.54
2022-11-05T23:03:41.108Z,56.78
2022-11-05T23:06:32.168Z,56.63
2022-11-05T23:09:17.916Z,56.50
2022-11-05T23:11:48.084Z,56.62
2022-11-05T23:14:19.186Z,56.63
2022-11-05T23:17:04.550Z,56.83
2022-11-05T23:19:49.465Z,56.35
2022-11-05T23:22:37.952Z,56.42
2022-11-05T23:25:08.607Z,56.59
2022-11-05T23:27:37.199Z,56.83
2022-11-05T23:30:11.028Z,56.52
2022-11-05T23:32:38.457Z,56.51
2022-11-05T23:35:09.121Z,56.83
2022-11-05T23:37:53.944Z,56.65
2022-11-05T23:40:25.989Z,56.97
2022-11-05T23:43:10.848Z,56.84
2022-11-05T23:46:01.156Z,56.83
2022-11-05T23:48:37.729Z,57.03
2022-11-05T23:51:10.748Z,57.17
2022-11-05T23:53:40.451Z,56.63
2022-11-05T23:56:13.879Z,56.77
2022-11-05T23:58:41.821Z,57.07
